Time;durP1;ratioP1;P1;durP2;ratioP2;P2;SDS_P1;SDS_P2;PMS_P1;PMS_P2;Temp;Humidity;BMP_temperature;BMP_pressure;BME280_temperature;BME280_humidity;BME280_pressure;Samples;Min_cycle;Max_cycle;Signal;HPM_P1;HPM_P2
2023/08/29 00:00:14;;;;;;;4.10;2.30;;;19.30;99.90;;;;;;4910411;29;20679;-89
2023/08/29 00:02:44;;;;;;;3.92;2.10;;;19.40;99.90;;;;;;4912539;29;20198;-87
2023/08/29 00:05:18;;;;;;;3.70;1.70;;;19.60;99.90;;;;;;4915502;29;20194;-85
2023/08/29 00:07:48;;;;;;;2.42;1.77;;;19.70;99.90;;;;;;4915033;29;20197;-87
2023/08/29 00:10:19;;;;;;;4.47;1.90;;;19.70;99.90;;;;;;4915721;29;20258;-89
2023/08/29 00:12:50;;;;;;;6.57;1.65;;;19.90;99.90;;;;;;4915484;29;20190;-87
2023/08/29 00:15:21;;;;;;;2.00;1.40;;;19.90;99.90;;;;;;4908465;29;20213;-86
2023/08/29 00:17:52;;;;;;;2.72;1.80;;;20.00;99.90;;;;;;4915139;29;20212;-87
2023/08/29 00:20:26;;;;;;;3.95;1.63;;;20.00;99.90;;;;;;4909964;29;20220;-87
2023/08/29 00:22:58;;;;;;;3.05;1.73;;;20.00;99.90;;;;;;4908670;29;20248;-87
2023/08/29 00:25:28;;;;;;;6.28;2.03;;;20.20;99.90;;;;;;4934483;29;20224;-86
2023/08/29 00:28:04;;;;;;;4.60;2.08;;;20.30;99.90;;;;;;4938968;29;20295;-84
2023/08/29 00:30:38;;;;;;;5.47;2.10;;;20.40;99.90;;;;;;4916608;29;20194;-85
2023/08/29 00:33:10;;;;;;;5.90;1.95;;;20.40;99.90;;;;;;4914830;29;20205;-85
2023/08/29 00:35:43;;;;;;;5.25;1.75;;;20.50;99.90;;;;;;4914923;29;20327;-85
2023/08/29 00:38:14;;;;;;;2.75;1.40;;;20.50;99.90;;;;;;4914655;29;20217;-86
2023/08/29 00:40:45;;;;;;;5.05;1.85;;;20.70;99.90;;;;;;4915661;29;20216;-85
2023/08/29 00:43:16;;;;;;;3.88;1.63;;;20.80;99.90;;;;;;4933011;29;20201;-85
2023/08/29 00:45:48;;;;;;;3.40;1.50;;;20.90;99.90;;;;;;4916512;29;20209;-85
2023/08/29 00:48:19;;;;;;;5.78;1.63;;;21.00;99.90;;;;;;4903769;29;20697;-86
2023/08/29 00:50:52;;;;;;;3.97;1.52;;;21.00;99.90;;;;;;4910843;29;20205;-86
2023/08/29 00:53:25;;;;;;;4.97;1.45;;;20.90;99.90;;;;;;4900036;29;20213;-85
2023/08/29 00:55:57;;;;;;;4.90;1.80;;;21.00;99.90;;;;;;4912278;29;20603;-86
2023/08/29 00:58:27;;;;;;;4.05;1.60;;;21.10;99.90;;;;;;4907931;29;20681;-86
2023/08/29 01:00:58;;;;;;;6.20;1.70;;;21.20;99.90;;;;;;4914051;29;20228;-86
2023/08/29 01:03:29;;;;;;;3.30;1.10;;;21.20;99.90;;;;;;4917976;29;20205;-86
2023/08/29 01:06:02;;;;;;;3.83;1.40;;;21.20;99.90;;;;;;4932281;29;20276;-85
2023/08/29 01:08:33;;;;;;;2.55;1.00;;;21.30;99.90;;;;;;4937054;29;20236;-86
2023/08/29 01:11:12;;;;;;;3.60;1.30;;;21.40;99.90;;;;;;4923085;29;20232;-85
2023/08/29 01:13:49;;;;;;;3.67;1.60;;;21.50;99.90;;;;;;4909983;29;20662;-86
2023/08/29 01:16:24;;;;;;;3.85;1.40;;;21.50;99.90;;;;;;4913455;29;20232;-86
2023/08/29 01:18:57;;;;;;;2.22;1.10;;;21.60;99.90;;;;;;4910965;29;20720;-86
2023/08/29 01:21:52;;;;;;;5.30;1.50;;;21.70;99.90;;;;;;4926891;29;20226;-85
2023/08/29 01:24:31;;;;;;;3.35;1.20;;;21.70;99.90;;;;;;4909544;29;20241;-87
2023/08/29 01:27:05;;;;;;;2.08;1.20;;;21.70;99.90;;;;;;4921180;29;20216;-87
2023/08/29 01:29:37;;;;;;;1.25;1.02;;;21.70;99.90;;;;;;4930238;29;20206;-87
2023/08/29 01:32:08;;;;;;;2.20;1.10;;;21.80;99.90;;;;;;4906676;29;20217;-86
2023/08/29 01:34:39;;;;;;;2.22;1.17;;;21.90;99.90;;;;;;4925353;29;20311;-85
2023/08/29 01:37:10;;;;;;;3.00;1.35;;;22.00;99.90;;;;;;4906691;29;20201;-86
2023/08/29 01:39:41;;;;;;;1.60;1.10;;;22.10;99.90;;;;;;4917595;29;20244;-86
2023/08/29 01:42:14;;;;;;;3.25;1.30;;;22.20;99.90;;;;;;4918177;29;20567;-87
2023/08/29 01:44:45;;;;;;;2.17;1.23;;;22.30;99.90;;;;;;4920415;29;20189;-88
2023/08/29 01:47:15;;;;;;;3.17;1.48;;;22.30;99.90;;;;;;4924496;29;20223;-88
2023/08/29 01:49:47;;;;;;;4.47;1.60;;;22.40;99.90;;;;;;4903631;29;21867;-89
2023/08/29 01:52:18;;;;;;;1.88;1.50;;;22.40;99.90;;;;;;4920760;29;20201;-88
2023/08/29 01:54:49;;;;;;;2.15;1.40;;;22.60;99.90;;;;;;4927264;29;20240;-89
2023/08/29 01:57:24;;;;;;;4.63;2.00;;;22.60;99.90;;;;;;4927143;29;20207;-89
2023/08/29 01:59:57;;;;;;;7.78;1.55;;;22.60;99.90;;;;;;4924582;29;20240;-89
2023/08/29 02:02:28;;;;;;;7.40;1.60;;;22.60;99.90;;;;;;4923479;29;20217;-88
2023/08/29 02:04:59;;;;;;;4.10;1.90;;;22.60;99.90;;;;;;4923209;29;20229;-88
2023/08/29 02:07:32;;;;;;;3.60;1.85;;;22.60;99.90;;;;;;4916025;29;20201;-89
2023/08/29 02:10:03;;;;;;;4.65;1.90;;;22.60;99.90;;;;;;4923325;29;20204;-88
2023/08/29 02:12:37;;;;;;;5.38;1.92;;;22.60;99.90;;;;;;4927523;29;20218;-88
2023/08/29 02:15:08;;;;;;;8.60;1.92;;;22.60;99.90;;;;;;4916492;29;20190;-89
2023/08/29 02:17:40;;;;;;;5.00;1.95;;;22.70;99.90;;;;;;4909907;29;20284;-87
2023/08/29 02:20:12;;;;;;;6.05;2.00;;;22.70;99.90;;;;;;4916848;29;20221;-89
2023/08/29 02:22:44;;;;;;;5.13;1.90;;;22.70;99.90;;;;;;4914001;29;20293;-88
2023/08/29 02:25:15;;;;;;;4.28;2.05;;;22.80;99.90;;;;;;4914561;29;20241;-87
2023/08/29 02:27:49;;;;;;;3.63;1.85;;;22.80;99.90;;;;;;4918573;29;20201;-88
2023/08/29 02:30:20;;;;;;;3.92;2.05;;;22.90;99.90;;;;;;4916924;29;20196;-87
2023/08/29 02:32:52;;;;;;;3.25;1.52;;;22.90;99.90;;;;;;4923791;29;20261;-87
2023/08/29 02:35:22;;;;;;;3.47;1.83;;;23.00;99.90;;;;;;4917396;29;20194;-88
2023/08/29 02:37:54;;;;;;;3.10;1.77;;;23.10;99.90;;;;;;4919444;29;20960;-89
2023/08/29 02:40:25;;;;;;;6.05;2.00;;;23.10;99.90;;;;;;4916811;29;20232;-88
2023/08/29 02:42:59;;;;;;;4.93;2.05;;;23.10;99.90;;;;;;4917406;29;20209;-89
2023/08/29 02:45:30;;;;;;;3.67;1.83;;;23.20;99.90;;;;;;4914834;29;20585;-88
2023/08/29 02:48:01;;;;;;;3.17;1.70;;;23.20;99.90;;;;;;4913017;29;20225;-88
2023/08/29 02:50:32;;;;;;;6.68;2.00;;;23.10;99.90;;;;;;4925247;29;20233;-88
2023/08/29 02:53:03;;;;;;;5.10;1.83;;;23.10;99.90;;;;;;4936336;29;20177;-88
2023/08/29 02:55:35;;;;;;;5.68;2.22;;;23.10;99.90;;;;;;4949504;28;20193;-87
2023/08/29 02:58:09;;;;;;;5.25;2.10;;;23.00;99.90;;;;;;4947096;29;20260;-89
2023/08/29 03:00:41;;;;;;;8.35;2.13;;;23.00;99.90;;;;;;4936449;29;20226;-86
2023/08/29 03:03:13;;;;;;;3.65;1.80;;;23.10;99.90;;;;;;4947181;28;20226;-88
2023/08/29 03:05:44;;;;;;;4.47;2.05;;;23.10;99.90;;;;;;4930241;29;20212;-90
2023/08/29 03:08:15;;;;;;;6.72;2.35;;;23.20;99.90;;;;;;4940084;29;20666;-88
2023/08/29 03:10:46;;;;;;;3.13;1.95;;;23.30;99.90;;;;;;4923118;29;20570;-88
2023/08/29 03:13:18;;;;;;;5.82;1.77;;;23.30;99.90;;;;;;4916152;29;20197;-87
2023/08/29 03:15:49;;;;;;;2.60;1.92;;;23.20;99.90;;;;;;4913344;29;20223;-87
2023/08/29 03:18:20;;;;;;;3.45;1.85;;;23.30;99.90;;;;;;4927702;29;20232;-91
2023/08/29 03:20:52;;;;;;;5.45;2.03;;;23.30;99.90;;;;;;4922171;29;20228;-85
2023/08/29 03:23:24;;;;;;;3.92;2.10;;;23.40;99.90;;;;;;4926783;29;20202;-89
2023/08/29 03:26:04;;;;;;;3.40;1.92;;;23.40;99.90;;;;;;4912078;29;20240;-88
2023/08/29 03:28:38;;;;;;;3.55;2.00;;;23.20;99.90;;;;;;4915954;29;20225;-87
2023/08/29 03:31:14;;;;;;;4.65;2.08;;;23.20;99.90;;;;;;4922850;29;20231;-87
2023/08/29 03:33:45;;;;;;;5.68;2.08;;;23.10;99.90;;;;;;4933677;29;20255;-87
2023/08/29 03:36:16;;;;;;;4.43;2.13;;;23.20;99.90;;;;;;4940548;29;20284;-89
2023/08/29 03:38:47;;;;;;;3.47;2.10;;;23.20;99.90;;;;;;4914788;29;20197;-88
2023/08/29 03:41:18;;;;;;;4.97;2.17;;;23.20;99.90;;;;;;4926413;29;20231;-87
2023/08/29 03:43:51;;;;;;;4.18;2.17;;;23.20;99.90;;;;;;4912658;29;20206;-87
2023/08/29 03:46:23;;;;;;;3.83;2.05;;;23.00;99.90;;;;;;4916305;29;20206;-89
2023/08/29 03:48:55;;;;;;;3.00;1.83;;;23.00;99.90;;;;;;4922290;29;20203;-87
2023/08/29 03:51:25;;;;;;;5.68;2.10;;;23.00;99.90;;;;;;4909579;29;20205;-89
2023/08/29 03:53:57;;;;;;;5.68;2.30;;;22.90;99.90;;;;;;4916901;29;20228;-88
2023/08/29 03:56:27;;;;;;;6.45;2.20;;;22.90;99.90;;;;;;4931220;29;20565;-88
2023/08/29 03:59:04;;;;;;;5.05;2.22;;;22.90;99.90;;;;;;4916903;29;20569;-88
2023/08/29 04:01:34;;;;;;;6.10;1.73;;;22.70;99.90;;;;;;4920369;29;20762;-88
2023/08/29 04:04:05;;;;;;;7.60;2.33;;;22.60;99.90;;;;;;4923031;29;20201;-88
2023/08/29 04:06:36;;;;;;;4.68;2.22;;;22.60;99.90;;;;;;4920910;29;20207;-88
2023/08/29 04:09:08;;;;;;;3.53;2.00;;;22.50;99.90;;;;;;4923051;29;20208;-89
2023/08/29 04:11:39;;;;;;;4.45;1.90;;;22.50;99.90;;;;;;4932432;29;20211;-90
2023/08/29 04:14:13;;;;;;;3.47;1.90;;;22.50;99.90;;;;;;4921892;29;20669;-88
2023/08/29 04:16:44;;;;;;;3.58;1.70;;;22.50;99.90;;;;;;4921676;29;20214;-87
2023/08/29 04:19:16;;;;;;;4.85;2.10;;;22.50;99.90;;;;;;4938343;28;20256;-81
2023/08/29 04:21:47;;;;;;;2.90;1.77;;;22.40;99.90;;;;;;4946108;28;20258;-86
2023/08/29 04:24:18;;;;;;;3.00;1.50;;;22.20;99.90;;;;;;4927158;29;20524;-87
2023/08/29 04:26:49;;;;;;;3.63;1.88;;;22.20;99.90;;;;;;4914901;29;20280;-86
2023/08/29 04:29:22;;;;;;;6.20;1.98;;;22.30;99.90;;;;;;4910950;29;20197;-89
2023/08/29 04:31:52;;;;;;;4.70;1.88;;;22.30;99.90;;;;;;4896444;29;20292;-87
2023/08/29 04:34:24;;;;;;;6.25;2.00;;;22.10;99.90;;;;;;4913994;29;20197;-88
2023/08/29 04:36:55;;;;;;;6.35;2.00;;;22.10;99.90;;;;;;4919991;29;20447;-88
2023/08/29 04:39:26;;;;;;;5.50;1.98;;;22.10;99.90;;;;;;4944389;29;20268;-88
2023/08/29 04:41:57;;;;;;;4.47;2.00;;;22.10;99.90;;;;;;4916730;29;20225;-87
2023/08/29 04:44:31;;;;;;;3.97;1.98;;;22.10;99.90;;;;;;4910127;29;20205;-85
2023/08/29 04:47:02;;;;;;;6.30;2.08;;;22.00;99.90;;;;;;4916554;29;20197;-87
2023/08/29 04:49:35;;;;;;;5.10;2.10;;;22.00;99.90;;;;;;4922644;29;20264;-87
2023/08/29 04:52:08;;;;;;;3.55;1.98;;;22.00;99.90;;;;;;4924153;29;20708;-87
2023/08/29 04:54:45;;;;;;;8.85;2.20;;;22.00;99.90;;;;;;4910196;29;20228;-88
2023/08/29 04:57:18;;;;;;;6.28;1.90;;;21.90;99.90;;;;;;4921645;29;20224;-89
2023/08/29 04:59:53;;;;;;;2.85;1.80;;;21.90;99.90;;;;;;4920324;29;20249;-89
2023/08/29 05:02:24;;;;;;;4.90;1.90;;;21.90;99.90;;;;;;4917554;29;20217;-89
2023/08/29 05:07:20;;;;;;;3.65;1.90;;;22.00;99.90;;;;;;4930961;23;20248;-90
2023/08/29 05:09:51;;;;;;;3.38;2.17;;;22.00;99.90;;;;;;4921086;29;20226;-88
2023/08/29 05:12:24;;;;;;;5.05;2.05;;;22.00;99.90;;;;;;5071806;23;20639;-89
2023/08/29 05:14:58;;;;;;;3.90;1.73;;;22.00;99.90;;;;;;4917043;29;20225;-89
2023/08/29 05:17:29;;;;;;;6.60;1.88;;;22.10;99.90;;;;;;4931567;29;20722;-88
2023/08/29 05:19:59;;;;;;;4.05;1.70;;;22.10;99.90;;;;;;4940858;29;20228;-87
2023/08/29 05:22:30;;;;;;;3.70;1.80;;;22.10;99.90;;;;;;4919752;29;20208;-89
2023/08/29 05:25:01;;;;;;;7.03;2.00;;;22.00;99.90;;;;;;4929860;29;20230;-87
2023/08/29 05:27:31;;;;;;;4.20;1.88;;;22.00;99.90;;;;;;4939028;29;20220;-88
2023/08/29 05:30:05;;;;;;;4.55;2.05;;;21.90;99.90;;;;;;4925503;29;20196;-88
2023/08/29 05:32:40;;;;;;;4.88;1.70;;;22.00;99.90;;;;;;4905970;29;20228;-88
2023/08/29 05:35:13;;;;;;;3.83;1.83;;;22.00;99.90;;;;;;4924178;29;20234;-87
2023/08/29 05:37:44;;;;;;;5.78;1.98;;;21.90;99.90;;;;;;4937973;29;20222;-88
2023/08/29 05:40:15;;;;;;;3.95;1.77;;;21.90;99.90;;;;;;4927922;29;20232;-87
2023/08/29 05:42:46;;;;;;;4.15;1.85;;;21.80;99.90;;;;;;4929190;29;20592;-88
2023/08/29 05:45:19;;;;;;;2.88;1.80;;;21.80;99.90;;;;;;4922538;29;20230;-87
2023/08/29 05:48:06;;;;;;;5.05;1.80;;;21.80;99.90;;;;;;4924786;29;20229;-88
2023/08/29 05:53:24;;;;;;;3.10;1.95;;;21.80;99.90;;;;;;4927814;29;20660;-86
2023/08/29 05:55:57;;;;;;;4.05;1.63;;;21.90;99.90;;;;;;4939805;29;20228;-86
2023/08/29 05:58:28;;;;;;;4.60;1.75;;;21.80;99.90;;;;;;4926461;29;20319;-86
2023/08/29 06:01:06;;;;;;;3.35;1.73;;;21.90;99.90;;;;;;4928525;29;20310;-88
2023/08/29 06:03:37;;;;;;;3.88;1.75;;;21.90;99.90;;;;;;4934092;29;20236;-87
2023/08/29 06:06:08;;;;;;;3.60;1.92;;;22.00;99.90;;;;;;4936312;29;20284;-87
2023/08/29 06:08:40;;;;;;;2.65;1.70;;;21.90;99.90;;;;;;4924630;29;20201;-86
2023/08/29 06:11:10;;;;;;;6.25;1.90;;;21.80;99.90;;;;;;4916636;29;20202;-86
2023/08/29 06:13:42;;;;;;;5.00;2.05;;;21.80;99.90;;;;;;4925224;29;20784;-87
2023/08/29 06:16:14;;;;;;;5.68;2.17;;;21.80;99.90;;;;;;4931292;29;20200;-86
2023/08/29 06:18:45;;;;;;;6.70;1.77;;;21.90;99.90;;;;;;4934867;29;20208;-86
2023/08/29 06:21:18;;;;;;;3.38;1.90;;;21.90;99.90;;;;;;4921870;29;20295;-86
2023/08/29 06:23:49;;;;;;;4.18;2.08;;;21.90;99.90;;;;;;4936096;29;20204;-85
2023/08/29 06:26:20;;;;;;;4.15;2.00;;;22.10;99.90;;;;;;4931240;29;20228;-86
2023/08/29 06:28:51;;;;;;;5.57;2.28;;;22.20;99.90;;;;;;4927933;29;20673;-88
2023/08/29 06:31:24;;;;;;;3.25;2.00;;;22.30;99.90;;;;;;4920336;29;20561;-86
2023/08/29 06:33:55;;;;;;;3.95;1.98;;;22.30;99.90;;;;;;4917637;29;20208;-88
2023/08/29 06:36:26;;;;;;;5.13;2.00;;;22.30;99.90;;;;;;4928874;29;20314;-88
2023/08/29 06:38:57;;;;;;;4.25;2.22;;;22.20;99.90;;;;;;4927063;29;20189;-88
2023/08/29 06:41:28;;;;;;;2.95;1.83;;;22.20;99.90;;;;;;4922585;29;20229;-88
2023/08/29 06:43:59;;;;;;;5.95;2.38;;;22.20;99.90;;;;;;4941659;29;20204;-87
2023/08/29 06:46:31;;;;;;;2.70;1.95;;;22.10;99.90;;;;;;4928281;29;20199;-86
2023/08/29 06:49:04;;;;;;;3.30;1.90;;;22.00;99.90;;;;;;4917758;29;20205;-88
2023/08/29 06:51:35;;;;;;;5.57;2.25;;;21.90;99.90;;;;;;4917338;29;20193;-88
2023/08/29 06:54:06;;;;;;;4.57;1.95;;;21.80;99.90;;;;;;4918090;29;20206;-87
2023/08/29 06:56:37;;;;;;;5.15;2.22;;;21.60;99.90;;;;;;4932351;29;20196;-88
2023/08/29 06:59:10;;;;;;;4.30;2.10;;;21.50;99.90;;;;;;4936065;29;20211;-86
2023/08/29 07:01:43;;;;;;;4.53;2.30;;;21.40;99.90;;;;;;4919416;29;20601;-85
2023/08/29 07:04:14;;;;;;;6.32;2.40;;;21.30;99.90;;;;;;4915187;29;20729;-86
2023/08/29 07:06:45;;;;;;;6.85;2.53;;;21.20;99.90;;;;;;4923395;29;20201;-85
2023/08/29 07:09:16;;;;;;;4.00;2.00;;;21.00;99.90;;;;;;4933904;29;20196;-85
2023/08/29 07:11:47;;;;;;;6.72;2.60;;;20.90;99.90;;;;;;4919477;29;20196;-85
2023/08/29 07:14:17;;;;;;;3.88;2.03;;;20.80;99.90;;;;;;4927044;29;20217;-87
2023/08/29 07:16:50;;;;;;;3.58;2.00;;;20.70;99.90;;;;;;4915648;29;20216;-86
2023/08/29 07:19:22;;;;;;;3.58;1.92;;;20.70;99.90;;;;;;4916084;29;20205;-88
2023/08/29 07:21:55;;;;;;;5.32;2.20;;;20.60;99.90;;;;;;4915144;29;20281;-88
2023/08/29 07:27:33;;;;;;;5.50;2.10;;;20.50;99.90;;;;;;4920624;29;20270;-85
2023/08/29 07:30:07;;;;;;;6.93;2.30;;;20.50;99.90;;;;;;4917761;29;20231;-91
2023/08/29 07:32:40;;;;;;;5.05;2.00;;;20.40;99.90;;;;;;4929539;29;20208;-86
2023/08/29 07:35:11;;;;;;;6.10;2.33;;;20.30;99.90;;;;;;4935006;29;20207;-87
2023/08/29 07:37:42;;;;;;;10.93;2.63;;;20.30;99.90;;;;;;4932991;29;20703;-87
2023/08/29 07:40:14;;;;;;;5.13;2.38;;;20.20;99.90;;;;;;4933095;29;20204;-87
2023/08/29 07:42:45;;;;;;;5.50;2.40;;;20.10;99.90;;;;;;4933651;29;20602;-86
2023/08/29 07:45:16;;;;;;;4.40;2.40;;;20.10;99.90;;;;;;4928789;29;20253;-84
2023/08/29 07:47:48;;;;;;;6.80;2.40;;;20.00;99.90;;;;;;4944891;29;20219;-86
2023/08/29 07:50:20;;;;;;;6.05;2.20;;;20.00;99.90;;;;;;4934308;29;20712;-88
2023/08/29 07:52:51;;;;;;;6.00;2.15;;;20.10;99.90;;;;;;4923860;29;20225;-88
2023/08/29 07:55:25;;;;;;;5.38;2.47;;;19.90;99.90;;;;;;4924460;29;20225;-87
2023/08/29 07:57:56;;;;;;;6.75;2.40;;;19.90;99.90;;;;;;4920795;29;20197;-88
2023/08/29 08:00:28;;;;;;;5.70;2.13;;;19.80;99.90;;;;;;4909987;29;20201;-88
2023/08/29 08:03:01;;;;;;;4.30;2.20;;;19.80;99.90;;;;;;4922055;29;20224;-88
2023/08/29 08:05:32;;;;;;;4.65;2.10;;;19.80;99.90;;;;;;4921494;29;20225;-87
2023/08/29 08:08:04;;;;;;;4.03;1.80;;;19.80;99.90;;;;;;4922823;29;20203;-86
2023/08/29 08:10:35;;;;;;;5.85;2.00;;;19.80;99.90;;;;;;4916209;29;20259;-87
2023/08/29 08:13:07;;;;;;;3.17;1.85;;;19.80;99.90;;;;;;4920030;29;20267;-87
2023/08/29 08:15:38;;;;;;;4.68;2.20;;;19.80;99.90;;;;;;4920447;29;20213;-87
2023/08/29 08:18:11;;;;;;;3.78;1.90;;;19.90;99.90;;;;;;4915630;29;20205;-86
2023/08/29 08:20:42;;;;;;;4.97;2.15;;;19.80;99.90;;;;;;4925044;29;20210;-86
2023/08/29 08:23:13;;;;;;;6.78;2.70;;;19.80;99.90;;;;;;4933331;29;21116;-87
2023/08/29 08:25:44;;;;;;;7.88;3.55;;;19.80;99.90;;;;;;4931479;29;20709;-88
2023/08/29 08:28:15;;;;;;;5.40;2.70;;;19.70;99.90;;;;;;4932305;29;20215;-86
2023/08/29 08:30:46;;;;;;;6.15;2.45;;;19.70;99.90;;;;;;4922161;29;20205;-86
2023/08/29 08:33:18;;;;;;;4.18;1.90;;;19.70;99.90;;;;;;4915229;29;20200;-87
2023/08/29 08:35:49;;;;;;;5.78;2.10;;;19.80;99.90;;;;;;4923205;29;20196;-85
2023/08/29 08:38:20;;;;;;;4.18;1.58;;;19.80;99.90;;;;;;4922148;29;20224;-87
2023/08/29 08:40:51;;;;;;;6.68;1.90;;;19.80;99.90;;;;;;4916069;29;20203;-84
2023/08/29 08:43:22;;;;;;;4.88;1.63;;;19.80;99.90;;;;;;4927569;29;20193;-88
2023/08/29 08:45:55;;;;;;;4.30;2.17;;;19.70;99.90;;;;;;4933715;29;20206;-88
2023/08/29 08:48:29;;;;;;;5.10;2.00;;;19.80;99.90;;;;;;4941941;29;20233;-88
2023/08/29 08:51:00;;;;;;;3.47;1.75;;;19.70;99.90;;;;;;4929937;29;20261;-88
2023/08/29 08:53:31;;;;;;;4.28;1.85;;;19.60;99.90;;;;;;4916754;29;20198;-88
2023/08/29 08:56:04;;;;;;;6.03;2.28;;;19.60;99.90;;;;;;4916228;29;20186;-89
2023/08/29 08:58:37;;;;;;;6.10;1.95;;;19.60;99.90;;;;;;4920777;29;20201;-89
2023/08/29 09:01:08;;;;;;;3.58;1.75;;;19.60;99.90;;;;;;4927664;29;20205;-89
2023/08/29 09:03:41;;;;;;;3.92;1.77;;;19.60;99.90;;;;;;4950470;28;20200;-86
2023/08/29 09:06:16;;;;;;;5.53;1.77;;;19.60;99.90;;;;;;4933229;29;20203;-89
2023/08/29 09:08:47;;;;;;;5.20;1.80;;;19.60;99.90;;;;;;4923518;29;20223;-87
2023/08/29 09:11:22;;;;;;;4.88;1.98;;;19.60;99.90;;;;;;4916732;29;20206;-87
2023/08/29 09:13:53;;;;;;;4.00;1.80;;;19.60;99.90;;;;;;4915014;29;20233;-87
2023/08/29 09:16:24;;;;;;;4.93;2.15;;;19.60;99.90;;;;;;4915565;29;20701;-88
2023/08/29 09:18:58;;;;;;;4.38;1.90;;;19.60;99.90;;;;;;4914662;29;20285;-88
2023/08/29 09:21:29;;;;;;;4.30;1.80;;;19.50;99.90;;;;;;4914802;29;20233;-89
2023/08/29 09:24:00;;;;;;;3.60;1.70;;;19.60;99.90;;;;;;4918146;29;20288;-88
2023/08/29 09:26:34;;;;;;;4.20;1.77;;;19.60;99.90;;;;;;4918950;29;20229;-89
2023/08/29 09:29:20;;;;;;;4.68;1.80;;;19.60;99.90;;;;;;4919037;29;20292;-89
2023/08/29 09:31:51;;;;;;;5.47;1.92;;;19.50;99.90;;;;;;4904711;29;20229;-88
2023/08/29 09:34:33;;;;;;;5.40;1.90;;;19.50;99.90;;;;;;4918799;29;20712;-89
2023/08/29 09:37:05;;;;;;;4.25;1.95;;;19.50;99.90;;;;;;4919049;29;20237;-89
2023/08/29 09:39:38;;;;;;;5.28;1.83;;;19.50;99.90;;;;;;4922623;29;20652;-88
2023/08/29 09:42:10;;;;;;;4.63;2.05;;;19.50;99.90;;;;;;4913114;29;20205;-89
2023/08/29 09:44:42;;;;;;;3.90;1.80;;;19.50;99.90;;;;;;4918848;29;20227;-89
2023/08/29 09:47:14;;;;;;;3.67;1.90;;;19.50;99.90;;;;;;4919768;29;20201;-88
2023/08/29 09:49:49;;;;;;;5.80;1.77;;;19.50;99.90;;;;;;4920010;29;20193;-87
2023/08/29 09:52:20;;;;;;;6.25;2.20;;;19.40;99.90;;;;;;4919693;29;20193;-88
2023/08/29 09:54:52;;;;;;;4.68;2.10;;;19.50;99.90;;;;;;4931868;29;20212;-90
2023/08/29 09:57:26;;;;;;;6.28;2.42;;;19.40;99.90;;;;;;4919310;29;20232;-88
2023/08/29 10:00:02;;;;;;;3.72;1.83;;;19.50;99.90;;;;;;4924709;29;20193;-89
2023/08/29 10:05:46;;;;;;;3.95;1.80;;;19.40;99.90;;;;;;4952145;28;20213;-90
2023/08/29 10:08:33;;;;;;;4.45;1.73;;;19.40;99.90;;;;;;4948672;28;20304;-88
2023/08/29 10:11:06;;;;;;;4.43;1.92;;;19.40;99.90;;;;;;4937646;29;20209;-90
2023/08/29 10:13:39;;;;;;;3.05;1.83;;;19.40;99.90;;;;;;4928611;29;20235;-90
2023/08/29 10:19:08;;;;;;;5.57;2.03;;;19.40;99.90;;;;;;4931617;29;20253;-90
2023/08/29 10:21:46;;;;;;;3.15;1.77;;;19.50;99.90;;;;;;4923767;29;20225;-88
2023/08/29 10:24:24;;;;;;;5.03;1.85;;;19.50;99.90;;;;;;4924562;29;20288;-87
2023/08/29 10:26:56;;;;;;;5.55;2.00;;;19.40;99.90;;;;;;4924885;29;20221;-89
2023/08/29 10:29:30;;;;;;;4.10;2.22;;;19.50;99.90;;;;;;4941182;29;20197;-90
2023/08/29 10:32:01;;;;;;;4.32;2.03;;;19.40;99.90;;;;;;4939400;29;20407;-88
2023/08/29 10:34:33;;;;;;;5.55;2.00;;;19.40;99.90;;;;;;4930393;29;20201;-87
2023/08/29 10:37:07;;;;;;;3.47;1.77;;;19.40;99.90;;;;;;4923740;29;20599;-88
2023/08/29 10:39:39;;;;;;;5.28;1.92;;;19.40;99.90;;;;;;4938139;28;20217;-86
2023/08/29 10:42:14;;;;;;;4.18;1.50;;;19.40;99.90;;;;;;4929165;29;20224;-88
2023/08/29 10:44:47;;;;;;;5.40;1.77;;;19.40;99.90;;;;;;4930358;29;20195;-86
2023/08/29 10:47:23;;;;;;;3.75;1.83;;;19.40;99.90;;;;;;4922779;29;20201;-89
2023/08/29 10:50:02;;;;;;;3.95;1.90;;;19.30;99.90;;;;;;4930532;29;20239;-88
2023/08/29 10:52:47;;;;;;;3.50;2.00;;;19.40;99.90;;;;;;4921234;29;20208;-87
2023/08/29 10:55:25;;;;;;;4.43;1.70;;;19.30;99.90;;;;;;4923165;29;20201;-88
2023/08/29 10:57:58;;;;;;;5.45;2.25;;;19.30;99.90;;;;;;4926027;29;20619;-88
2023/08/29 11:00:58;;;;;;;3.95;1.95;;;19.30;99.90;;;;;;4929264;29;20213;-89
2023/08/29 11:04:00;;;;;;;5.50;2.08;;;19.30;99.90;;;;;;4954091;23;20234;-89
2023/08/29 11:06:56;;;;;;;4.78;2.45;;;19.40;99.90;;;;;;4969351;28;20263;-89
2023/08/29 11:09:29;;;;;;;5.18;2.25;;;19.30;99.90;;;;;;4949921;28;20260;-91
2023/08/29 11:12:21;;;;;;;5.00;2.55;;;19.30;99.90;;;;;;4957053;28;20212;-88
2023/08/29 11:14:58;;;;;;;4.63;2.17;;;19.20;99.90;;;;;;4971380;28;20219;-89
2023/08/29 11:17:36;;;;;;;4.32;2.20;;;19.30;99.90;;;;;;4971009;28;20203;-89
2023/08/29 11:20:09;;;;;;;4.57;2.35;;;19.30;99.90;;;;;;4965739;29;20211;-89
2023/08/29 11:22:56;;;;;;;5.78;2.38;;;19.30;99.90;;;;;;4973442;28;20326;-90
2023/08/29 11:28:57;;;;;;;6.97;2.67;;;19.20;99.90;;;;;;4931215;29;20193;-92
2023/08/29 11:31:38;;;;;;;4.68;2.55;;;19.20;99.90;;;;;;4949010;28;20211;-90
2023/08/29 11:34:20;;;;;;;3.20;2.30;;;19.20;99.90;;;;;;4933602;29;20193;-90
2023/08/29 11:40:09;;;;;;;6.00;2.60;;;19.20;99.90;;;;;;4942194;28;20201;-95
2023/08/29 11:42:46;;;;;;;4.97;2.40;;;19.20;99.90;;;;;;4939990;29;20236;-90
2023/08/29 11:53:41;;;;;;;6.40;2.70;;;19.10;99.90;;;;;;5065937;23;20238;-91
2023/08/29 11:56:14;;;;;;;5.60;2.40;;;19.20;99.90;;;;;;4938223;29;20201;-88
2023/08/29 11:58:45;;;;;;;4.82;2.50;;;19.10;99.90;;;;;;4937415;29;20284;-88
2023/08/29 12:01:22;;;;;;;4.63;2.70;;;19.00;99.90;;;;;;4960216;28;20655;-89
2023/08/29 12:03:56;;;;;;;3.88;2.20;;;19.00;99.90;;;;;;4953682;29;20224;-88
2023/08/29 12:06:32;;;;;;;4.95;2.75;;;19.00;99.90;;;;;;4944149;29;20207;-89
2023/08/29 12:09:04;;;;;;;4.15;2.70;;;19.00;99.90;;;;;;4951986;28;20295;-89
2023/08/29 12:11:47;;;;;;;4.72;2.60;;;18.90;99.90;;;;;;4930920;29;20206;-88
2023/08/29 12:14:19;;;;;;;5.60;2.47;;;18.90;99.90;;;;;;4956159;29;20227;-87
2023/08/29 12:16:58;;;;;;;5.80;2.70;;;18.90;99.90;;;;;;4951116;29;20192;-87
2023/08/29 12:19:40;;;;;;;4.68;3.05;;;18.90;99.90;;;;;;4958891;29;20286;-87
2023/08/29 12:22:11;;;;;;;5.60;2.65;;;18.80;99.90;;;;;;4961807;29;20211;-87
2023/08/29 12:24:43;;;;;;;5.38;2.70;;;18.80;99.90;;;;;;4944354;29;20228;-85
2023/08/29 12:27:15;;;;;;;5.75;2.90;;;18.70;99.90;;;;;;4948226;29;20208;-88
2023/08/29 12:29:46;;;;;;;5.60;2.78;;;18.70;99.90;;;;;;4964033;29;20251;-90
2023/08/29 12:32:17;;;;;;;6.50;2.80;;;18.70;99.90;;;;;;4959110;29;20224;-91
2023/08/29 12:34:52;;;;;;;4.10;2.55;;;18.70;99.90;;;;;;4963757;28;20769;-90
2023/08/29 12:37:23;;;;;;;4.38;2.75;;;18.70;99.90;;;;;;4952420;29;20200;-85
2023/08/29 12:39:57;;;;;;;4.18;2.45;;;18.70;99.90;;;;;;4957534;28;20224;-88
2023/08/29 12:42:28;;;;;;;6.32;2.72;;;18.70;99.90;;;;;;4946533;29;20702;-89
2023/08/29 12:45:03;;;;;;;6.10;2.85;;;18.60;99.90;;;;;;4953684;28;20165;-89
2023/08/29 12:50:34;;;;;;;4.68;2.97;;;18.60;99.90;;;;;;4952793;28;20553;-89
2023/08/29 12:53:15;;;;;;;5.22;2.85;;;18.60;99.90;;;;;;4938943;29;20192;-88
2023/08/29 12:55:50;;;;;;;6.10;3.28;;;18.50;99.90;;;;;;4940631;29;20204;-89
2023/08/29 12:58:24;;;;;;;5.50;3.65;;;18.50;99.90;;;;;;4946271;28;20260;-88
2023/08/29 13:00:55;;;;;;;4.18;3.08;;;18.50;99.90;;;;;;4951801;29;20255;-89
2023/08/29 13:03:26;;;;;;;4.32;3.30;;;18.40;99.90;;;;;;4943982;29;20220;-88
2023/08/29 13:06:03;;;;;;;6.57;3.10;;;18.40;99.90;;;;;;4958186;29;20789;-89
2023/08/29 13:08:36;;;;;;;5.82;3.00;;;18.40;99.90;;;;;;4960569;29;20208;-89
2023/08/29 13:11:07;;;;;;;5.22;3.10;;;18.40;99.90;;;;;;4958447;29;20315;-87
2023/08/29 13:13:38;;;;;;;6.88;2.97;;;18.40;99.90;;;;;;4956294;29;20284;-88
2023/08/29 13:16:09;;;;;;;6.32;3.65;;;18.30;99.90;;;;;;4956601;29;20224;-87
2023/08/29 13:18:40;;;;;;;5.43;3.08;;;18.30;99.90;;;;;;4937436;29;20294;-86
2023/08/29 13:21:15;;;;;;;4.40;3.15;;;18.30;99.90;;;;;;4936641;29;20201;-88
2023/08/29 13:23:46;;;;;;;5.38;3.22;;;18.30;99.90;;;;;;4955592;29;20619;-87
2023/08/29 13:26:22;;;;;;;6.47;3.47;;;18.30;99.90;;;;;;4941017;29;20204;-87
2023/08/29 13:28:53;;;;;;;5.85;3.20;;;18.30;99.90;;;;;;4959425;29;20227;-87
2023/08/29 13:31:27;;;;;;;6.32;3.38;;;18.20;99.90;;;;;;4963190;29;20295;-91
2023/08/29 13:33:58;;;;;;;5.22;3.20;;;18.20;99.90;;;;;;4961201;28;20282;-90
2023/08/29 13:36:33;;;;;;;6.25;3.30;;;18.20;99.90;;;;;;4960149;29;20200;-91
2023/08/29 13:39:04;;;;;;;6.72;3.30;;;18.20;99.90;;;;;;4956282;29;20238;-89
2023/08/29 13:41:35;;;;;;;4.40;3.00;;;18.20;99.90;;;;;;4948453;29;20204;-89
2023/08/29 13:44:07;;;;;;;4.85;3.13;;;18.20;99.90;;;;;;4964617;29;20228;-91
2023/08/29 13:46:37;;;;;;;5.22;3.00;;;18.10;99.90;;;;;;4957148;29;20244;-89
2023/08/29 13:49:08;;;;;;;5.95;3.25;;;18.10;99.90;;;;;;4952466;29;20228;-91